Time;durP1;ratioP1;P1;durP2;ratioP2;P2;SDS_P1;SDS_P2;PMS_P1;PMS_P2;Temp;Humidity;BMP_temperature;BMP_pressure;BME280_temperature;BME280_humidity;BME280_pressure;Samples;Min_cycle;Max_cycle;Signal;HPM_P1;HPM_P2
2022/06/24 00:01:27;;;;;;;1.10;1.10;;;21.00;99.90;;;;;;5084094;28;20188;-57
2022/06/24 00:03:54;;;;;;;0.95;0.95;;;21.00;99.90;;;;;;5086228;28;20606;-57
2022/06/24 00:06:21;;;;;;;1.00;1.00;;;21.00;99.90;;;;;;5085794;28;20197;-57
2022/06/24 00:08:54;;;;;;;0.80;0.80;;;21.00;99.90;;;;;;5082240;28;20484;-57
2022/06/24 00:11:29;;;;;;;1.10;1.10;;;20.90;99.90;;;;;;5083705;28;20214;-55
2022/06/24 00:14:15;;;;;;;0.98;0.98;;;20.90;99.90;;;;;;5088436;28;20216;-57
2022/06/24 00:16:56;;;;;;;1.13;1.13;;;20.90;99.90;;;;;;5085072;28;20608;-56
2022/06/24 00:19:24;;;;;;;1.20;1.20;;;20.80;99.90;;;;;;5081721;28;20852;-57
2022/06/24 00:22:15;;;;;;;1.20;1.20;;;20.80;99.90;;;;;;5085691;28;20192;-57
2022/06/24 00:24:42;;;;;;;1.52;1.42;;;20.70;99.90;;;;;;5059874;28;20726;-56
2022/06/24 00:27:22;;;;;;;1.20;1.20;;;20.70;99.90;;;;;;5088632;28;20193;-58
2022/06/24 00:29:50;;;;;;;1.13;1.13;;;20.70;99.90;;;;;;5080024;28;20232;-56
2022/06/24 00:32:29;;;;;;;1.20;1.20;;;20.60;99.90;;;;;;5084467;28;20197;-56
2022/06/24 00:35:04;;;;;;;1.13;1.13;;;20.60;99.90;;;;;;5072229;28;20283;-56
2022/06/24 00:37:32;;;;;;;1.33;1.20;;;20.60;99.90;;;;;;5089216;28;20196;-55
2022/06/24 00:40:22;;;;;;;1.40;1.30;;;20.60;99.90;;;;;;5072301;28;20200;-57
2022/06/24 00:42:50;;;;;;;1.38;1.27;;;20.60;99.90;;;;;;5084922;28;20185;-55
2022/06/24 00:45:25;;;;;;;1.10;1.10;;;20.50;99.90;;;;;;5089991;28;20576;-55
2022/06/24 00:47:53;;;;;;;1.35;1.35;;;20.60;99.90;;;;;;5091043;28;20560;-55
2022/06/24 00:50:23;;;;;;;1.10;1.10;;;20.50;99.90;;;;;;5089659;28;20644;-55
2022/06/24 00:52:53;;;;;;;1.60;1.52;;;20.50;99.90;;;;;;5069012;28;20200;-54
2022/06/24 00:55:22;;;;;;;1.38;1.38;;;20.50;99.90;;;;;;5071094;28;20208;-53
2022/06/24 00:57:50;;;;;;;1.13;1.13;;;20.40;99.90;;;;;;5080285;28;20197;-54
2022/06/24 01:00:18;;;;;;;1.10;1.10;;;20.40;99.90;;;;;;5084435;28;20197;-55
2022/06/24 01:02:47;;;;;;;1.20;1.20;;;20.40;99.90;;;;;;5059598;28;20209;-53
2022/06/24 01:05:17;;;;;;;1.25;1.15;;;20.40;99.90;;;;;;5084915;28;20715;-56
2022/06/24 01:07:44;;;;;;;1.20;1.10;;;20.40;99.90;;;;;;5082074;28;20192;-54
2022/06/24 01:10:11;;;;;;;1.33;1.33;;;20.40;99.90;;;;;;5076925;28;20730;-56
2022/06/24 01:12:38;;;;;;;1.30;1.30;;;20.40;99.90;;;;;;5079851;28;20205;-57
2022/06/24 01:15:08;;;;;;;1.40;1.30;;;20.30;99.90;;;;;;5077260;28;20193;-57
2022/06/24 01:17:36;;;;;;;1.33;1.33;;;20.40;99.90;;;;;;5084888;28;20189;-57
2022/06/24 01:20:05;;;;;;;1.23;1.17;;;20.40;99.90;;;;;;5079295;28;20256;-56
2022/06/24 01:22:33;;;;;;;1.45;1.35;;;20.30;99.90;;;;;;5080183;28;20201;-57
2022/06/24 01:25:00;;;;;;;1.23;1.23;;;20.30;99.90;;;;;;5087979;28;20197;-57
2022/06/24 01:27:27;;;;;;;1.20;1.20;;;20.40;99.90;;;;;;5077655;28;20272;-56
2022/06/24 01:29:55;;;;;;;1.52;1.00;;;20.40;99.90;;;;;;5077200;28;20356;-57
2022/06/24 01:32:22;;;;;;;1.10;1.10;;;20.40;99.90;;;;;;5075067;28;20196;-55
2022/06/24 01:34:49;;;;;;;1.27;1.27;;;20.30;99.90;;;;;;5073057;28;20204;-55
2022/06/24 01:37:17;;;;;;;1.23;1.23;;;20.30;99.90;;;;;;5070666;28;20197;-56
2022/06/24 01:39:45;;;;;;;1.45;1.35;;;20.30;99.90;;;;;;5070329;28;20843;-56
2022/06/24 01:42:12;;;;;;;1.30;1.20;;;20.30;99.90;;;;;;5072101;28;20686;-55
2022/06/24 01:44:39;;;;;;;1.30;1.30;;;20.30;99.90;;;;;;5069787;28;20197;-55
2022/06/24 01:47:07;;;;;;;1.33;1.33;;;20.30;99.90;;;;;;5071821;28;20264;-55
2022/06/24 01:49:34;;;;;;;1.27;1.27;;;20.30;99.90;;;;;;5070372;28;20274;-56
2022/06/24 01:52:02;;;;;;;1.48;1.38;;;20.30;99.90;;;;;;5081467;28;20239;-55
2022/06/24 01:54:29;;;;;;;1.10;1.10;;;20.30;99.90;;;;;;5080303;28;20215;-56
2022/06/24 01:56:58;;;;;;;1.20;1.20;;;20.20;99.90;;;;;;5081612;28;20227;-55
2022/06/24 01:59:25;;;;;;;1.45;1.35;;;20.20;99.90;;;;;;5078707;28;20556;-52
2022/06/24 02:01:52;;;;;;;2.22;2.08;;;20.30;99.90;;;;;;5062157;28;20196;-53
2022/06/24 02:04:19;;;;;;;1.90;1.80;;;20.30;99.90;;;;;;5085905;28;20200;-55
2022/06/24 02:06:46;;;;;;;1.65;1.55;;;20.20;99.90;;;;;;5079192;28;20197;-57
2022/06/24 02:09:16;;;;;;;1.92;1.83;;;20.20;99.90;;;;;;5084222;28;20220;-56
2022/06/24 02:14:30;;;;;;;1.35;1.35;;;20.20;99.90;;;;;;5080883;28;20216;-55
2022/06/24 02:16:57;;;;;;;1.80;1.70;;;20.20;99.90;;;;;;5075099;28;20200;-55
2022/06/24 02:19:25;;;;;;;1.63;1.52;;;20.10;99.90;;;;;;5057983;28;20243;-56
2022/06/24 02:21:52;;;;;;;1.85;1.70;;;20.10;99.90;;;;;;5054160;28;20198;-56
2022/06/24 02:24:19;;;;;;;1.30;1.30;;;20.00;99.90;;;;;;5067684;28;20263;-56
2022/06/24 02:26:47;;;;;;;1.33;1.30;;;20.00;99.90;;;;;;5056223;28;20193;-55
2022/06/24 02:29:14;;;;;;;1.30;1.30;;;20.00;99.90;;;;;;5059539;28;20213;-55
2022/06/24 02:31:43;;;;;;;1.40;1.40;;;20.00;99.90;;;;;;5060367;28;20208;-57
2022/06/24 02:34:10;;;;;;;2.33;1.10;;;20.00;99.90;;;;;;5056296;28;20541;-56
2022/06/24 02:36:37;;;;;;;1.25;1.23;;;20.00;99.90;;;;;;5067735;28;20189;-56
2022/06/24 02:39:05;;;;;;;1.73;1.63;;;20.00;99.90;;;;;;5052596;28;20299;-55
2022/06/24 02:41:32;;;;;;;1.98;1.88;;;20.00;99.90;;;;;;5058396;28;20189;-56
2022/06/24 02:43:59;;;;;;;1.58;1.50;;;20.00;99.90;;;;;;5066090;28;20224;-56
2022/06/24 02:46:26;;;;;;;1.50;1.40;;;20.00;99.90;;;;;;5065883;28;20207;-55
2022/06/24 02:48:55;;;;;;;1.60;1.50;;;20.00;99.90;;;;;;5057239;28;20573;-56
2022/06/24 02:51:22;;;;;;;1.90;1.80;;;19.90;99.90;;;;;;5063412;28;20669;-56
2022/06/24 02:53:49;;;;;;;1.63;1.52;;;19.90;99.90;;;;;;5063369;28;20228;-55
2022/06/24 02:56:16;;;;;;;2.05;1.90;;;19.90;99.90;;;;;;5057178;28;20223;-55
2022/06/24 02:58:44;;;;;;;1.60;1.60;;;19.90;99.90;;;;;;5063060;28;20229;-56
2022/06/24 03:01:12;;;;;;;1.65;1.50;;;19.90;99.90;;;;;;5063743;28;20241;-55
2022/06/24 03:03:39;;;;;;;1.48;1.38;;;19.90;99.90;;;;;;5061281;28;20194;-57
2022/06/24 03:06:09;;;;;;;1.65;1.55;;;19.90;99.90;;;;;;5062991;28;20201;-55
2022/06/24 03:08:37;;;;;;;1.55;1.45;;;19.90;99.90;;;;;;5060017;28;20197;-54
2022/06/24 03:11:04;;;;;;;1.67;1.58;;;19.90;99.90;;;;;;5059422;28;20212;-55
2022/06/24 03:13:31;;;;;;;1.48;1.40;;;19.80;99.90;;;;;;5051398;28;20198;-55
2022/06/24 03:15:58;;;;;;;1.80;1.70;;;19.80;99.90;;;;;;5059618;28;20204;-58
2022/06/24 03:18:26;;;;;;;2.78;1.50;;;19.80;99.90;;;;;;5062760;28;20197;-57
2022/06/24 03:20:53;;;;;;;3.08;2.10;;;19.80;99.90;;;;;;5079827;28;20294;-57
2022/06/24 03:23:21;;;;;;;2.03;1.92;;;19.70;99.80;;;;;;5085294;28;20203;-57
2022/06/24 03:25:49;;;;;;;2.35;2.17;;;19.70;99.90;;;;;;5065327;28;20197;-56
2022/06/24 03:28:16;;;;;;;2.20;1.90;;;19.70;99.90;;;;;;5082336;28;20295;-55
2022/06/24 03:30:43;;;;;;;2.55;1.90;;;19.70;99.90;;;;;;5086639;28;20209;-54
2022/06/24 03:33:10;;;;;;;1.80;1.70;;;19.70;99.90;;;;;;5082464;28;20197;-54
2022/06/24 03:35:37;;;;;;;1.30;1.30;;;19.70;99.90;;;;;;5074052;28;20193;-56
2022/06/24 03:38:05;;;;;;;1.60;1.50;;;19.70;99.90;;;;;;5073926;28;20213;-52
2022/06/24 03:40:33;;;;;;;1.40;1.30;;;19.70;99.90;;;;;;5076460;28;20725;-53
2022/06/24 03:43:00;;;;;;;1.73;1.55;;;19.70;99.90;;;;;;5083468;28;20212;-55
2022/06/24 03:45:28;;;;;;;1.60;1.50;;;19.70;99.90;;;;;;5086920;28;20201;-54
2022/06/24 03:47:55;;;;;;;1.50;1.50;;;19.70;99.90;;;;;;5090165;28;20200;-50
2022/06/24 03:50:22;;;;;;;1.70;1.60;;;19.70;99.90;;;;;;5087635;28;20231;-56
2022/06/24 03:52:49;;;;;;;1.75;1.65;;;19.70;99.90;;;;;;5090268;28;20675;-50
2022/06/24 03:55:16;;;;;;;1.70;1.60;;;19.70;99.90;;;;;;5085131;28;20433;-51
2022/06/24 03:57:45;;;;;;;1.58;1.48;;;19.70;99.90;;;;;;5080808;28;20210;-54
2022/06/24 04:00:13;;;;;;;1.60;1.50;;;19.70;99.90;;;;;;5085038;28;20196;-56
2022/06/24 04:02:40;;;;;;;2.10;1.50;;;19.70;99.90;;;;;;5079309;28;20264;-55
2022/06/24 04:05:10;;;;;;;1.83;1.73;;;19.80;99.90;;;;;;5067597;28;20220;-53
2022/06/24 04:07:37;;;;;;;1.85;1.75;;;19.80;99.90;;;;;;5086761;28;20196;-57
2022/06/24 04:10:05;;;;;;;2.00;1.90;;;19.80;99.90;;;;;;5085184;28;20268;-55
2022/06/24 04:12:32;;;;;;;2.45;2.22;;;19.80;99.90;;;;;;5078929;28;20295;-54
2022/06/24 04:15:17;;;;;;;2.10;2.00;;;19.80;99.90;;;;;;5082859;28;20208;-55
2022/06/24 04:17:45;;;;;;;2.10;1.90;;;19.80;99.90;;;;;;5081548;28;20285;-55
2022/06/24 04:20:13;;;;;;;2.13;2.03;;;19.80;99.90;;;;;;5084557;28;20234;-55
2022/06/24 04:22:41;;;;;;;2.50;2.15;;;19.80;99.90;;;;;;5078579;28;20545;-55
2022/06/24 04:25:10;;;;;;;2.20;2.00;;;19.80;99.90;;;;;;5084922;28;20276;-57
2022/06/24 04:27:37;;;;;;;1.65;1.55;;;19.80;99.90;;;;;;5063408;28;20803;-57
2022/06/24 04:30:08;;;;;;;2.03;1.92;;;19.90;99.90;;;;;;5083076;28;20197;-57
2022/06/24 04:32:35;;;;;;;2.10;2.00;;;19.90;99.90;;;;;;5083957;28;20304;-57
2022/06/24 04:35:03;;;;;;;3.33;2.53;;;19.90;99.90;;;;;;5083663;28;20192;-57
2022/06/24 04:37:30;;;;;;;3.22;2.83;;;19.90;99.90;;;;;;5090995;28;20207;-56
2022/06/24 04:39:58;;;;;;;3.40;3.10;;;19.90;99.90;;;;;;5091530;28;20531;-57
2022/06/24 04:42:25;;;;;;;3.97;3.22;;;19.90;99.90;;;;;;5089230;28;20273;-58
2022/06/24 04:44:53;;;;;;;3.40;3.10;;;19.90;99.90;;;;;;5090825;28;20192;-56
2022/06/24 04:47:22;;;;;;;3.28;3.05;;;19.80;99.90;;;;;;5089096;28;20612;-57
2022/06/24 04:49:50;;;;;;;3.00;2.80;;;19.90;99.90;;;;;;5090599;28;20284;-56
2022/06/24 04:52:17;;;;;;;3.08;2.50;;;20.00;99.90;;;;;;5087793;28;20216;-57
2022/06/24 04:54:44;;;;;;;5.20;2.45;;;20.00;99.90;;;;;;5087136;28;20204;-53
2022/06/24 04:57:12;;;;;;;3.10;2.80;;;20.00;99.90;;;;;;5085227;28;20204;-57
2022/06/24 04:59:40;;;;;;;3.08;2.78;;;20.00;99.90;;;;;;5088505;28;20671;-56
2022/06/24 05:02:07;;;;;;;3.67;3.38;;;20.10;99.90;;;;;;5075236;28;20216;-56
2022/06/24 05:04:36;;;;;;;5.22;3.58;;;20.10;99.90;;;;;;5085429;28;20196;-58
2022/06/24 05:07:03;;;;;;;4.18;3.55;;;20.10;99.90;;;;;;5079818;28;20201;-58
2022/06/24 05:09:30;;;;;;;3.72;3.40;;;20.10;99.90;;;;;;5084930;28;20637;-56
2022/06/24 05:11:58;;;;;;;4.82;3.60;;;20.10;99.90;;;;;;5072715;28;20216;-58
2022/06/24 05:14:26;;;;;;;3.65;3.35;;;20.10;99.90;;;;;;5079349;28;20287;-57
2022/06/24 05:16:53;;;;;;;3.47;3.17;;;20.20;99.90;;;;;;5077051;28;20565;-57
2022/06/24 05:19:20;;;;;;;3.78;3.35;;;20.20;99.90;;;;;;5083036;28;20375;-57
2022/06/24 05:21:49;;;;;;;2.75;2.60;;;20.20;99.90;;;;;;5082527;28;20200;-58
2022/06/24 05:24:16;;;;;;;3.20;3.00;;;20.20;99.90;;;;;;5087470;28;20279;-58
2022/06/24 05:26:45;;;;;;;3.85;3.33;;;20.30;99.90;;;;;;5075937;28;20556;-55
2022/06/24 05:29:12;;;;;;;4.05;2.90;;;20.30;99.90;;;;;;5080517;28;20193;-56
2022/06/24 05:31:40;;;;;;;3.45;2.90;;;20.40;99.90;;;;;;5086008;28;20264;-57
2022/06/24 05:34:07;;;;;;;2.55;2.35;;;20.40;99.90;;;;;;5086419;28;20595;-57
2022/06/24 05:36:35;;;;;;;2.72;2.53;;;20.50;99.90;;;;;;5082167;28;20200;-55
2022/06/24 05:39:05;;;;;;;2.00;1.90;;;20.50;99.90;;;;;;5090205;28;20196;-57
2022/06/24 05:41:32;;;;;;;3.15;2.85;;;20.60;99.90;;;;;;5076343;28;20645;-54
2022/06/24 05:44:00;;;;;;;2.70;2.50;;;20.60;99.90;;;;;;5085921;28;20205;-57
2022/06/24 05:46:27;;;;;;;2.65;2.30;;;20.70;99.90;;;;;;5071459;28;20193;-57
2022/06/24 05:48:54;;;;;;;2.50;2.30;;;20.70;99.90;;;;;;5082749;28;20201;-55
2022/06/24 05:51:21;;;;;;;2.20;2.10;;;20.80;99.90;;;;;;5079420;28;20209;-57
2022/06/24 05:56:34;;;;;;;2.58;2.38;;;20.90;99.90;;;;;;5081457;28;20275;-55
2022/06/24 05:59:02;;;;;;;2.78;2.58;;;21.00;99.90;;;;;;5084084;28;20627;-55
2022/06/24 06:01:29;;;;;;;3.30;2.80;;;21.00;99.90;;;;;;5079464;28;20185;-56
2022/06/24 06:03:56;;;;;;;3.90;2.78;;;21.00;99.90;;;;;;5076894;28;20189;-57
2022/06/24 06:06:24;;;;;;;3.30;3.00;;;21.10;99.90;;;;;;5074371;28;20201;-53
2022/06/24 06:08:51;;;;;;;2.53;2.33;;;21.10;99.90;;;;;;5084893;28;20640;-57
2022/06/24 06:11:20;;;;;;;2.92;2.50;;;21.10;99.90;;;;;;5078312;28;20445;-55
2022/06/24 06:13:50;;;;;;;3.05;2.50;;;21.20;99.90;;;;;;5083132;28;20193;-55
2022/06/24 06:16:18;;;;;;;5.00;2.50;;;21.20;99.90;;;;;;5072731;28;20283;-51
2022/06/24 06:18:48;;;;;;;3.15;2.83;;;21.30;99.90;;;;;;5077959;28;20278;-54
2022/06/24 06:21:17;;;;;;;3.05;2.83;;;21.30;99.90;;;;;;5077973;28;20224;-55
2022/06/24 06:23:45;;;;;;;2.58;2.38;;;21.40;99.90;;;;;;5078709;28;20220;-54
2022/06/24 06:26:12;;;;;;;2.95;2.75;;;21.40;99.90;;;;;;5081529;28;20196;-50
2022/06/24 06:28:41;;;;;;;2.90;2.70;;;21.50;99.90;;;;;;5076109;28;20205;-52
2022/06/24 06:31:11;;;;;;;2.97;2.72;;;21.60;99.90;;;;;;5068259;28;20976;-54
2022/06/24 06:33:38;;;;;;;2.90;2.70;;;21.60;99.90;;;;;;5085059;28;20185;-54
2022/06/24 06:36:06;;;;;;;2.95;2.75;;;21.70;99.90;;;;;;5078797;28;20275;-54
2022/06/24 06:38:34;;;;;;;2.80;2.60;;;21.70;99.90;;;;;;5081046;28;20184;-55
2022/06/24 06:41:02;;;;;;;2.45;2.35;;;21.80;99.90;;;;;;5066762;28;20185;-52
2022/06/24 06:43:29;;;;;;;6.05;2.38;;;21.80;99.90;;;;;;5079491;28;20279;-52
2022/06/24 06:45:57;;;;;;;2.97;2.70;;;21.90;99.90;;;;;;5073262;28;20246;-52
2022/06/24 06:48:26;;;;;;;3.60;2.80;;;21.90;99.90;;;;;;5076206;28;20732;-53
2022/06/24 06:50:57;;;;;;;2.80;2.60;;;22.00;99.90;;;;;;5072123;28;20197;-54
2022/06/24 06:53:25;;;;;;;4.47;3.08;;;22.00;99.90;;;;;;5081041;28;20222;-55
2022/06/24 06:55:52;;;;;;;3.00;2.80;;;22.10;99.90;;;;;;5069206;28;20215;-50
2022/06/24 06:58:21;;;;;;;3.00;2.80;;;22.20;99.90;;;;;;5081632;28;20276;-56
2022/06/24 07:00:49;;;;;;;2.85;2.65;;;22.20;99.90;;;;;;5072585;28;20207;-54
2022/06/24 07:03:16;;;;;;;3.30;2.88;;;22.30;99.90;;;;;;5080995;28;20203;-52
2022/06/24 07:05:45;;;;;;;3.72;2.70;;;22.40;99.90;;;;;;5072588;28;20573;-55
2022/06/24 07:08:13;;;;;;;3.35;3.08;;;22.40;99.90;;;;;;5075566;28;20203;-53
2022/06/24 07:10:40;;;;;;;4.18;3.75;;;22.50;99.90;;;;;;5073798;28;20951;-53
2022/06/24 07:13:08;;;;;;;3.65;3.33;;;22.50;99.90;;;;;;5084080;28;20204;-53
2022/06/24 07:15:35;;;;;;;3.35;3.10;;;22.60;99.90;;;;;;5084763;28;20211;-52
2022/06/24 07:18:03;;;;;;;3.72;3.38;;;22.70;99.90;;;;;;5080119;28;20229;-49
2022/06/24 07:20:30;;;;;;;2.78;2.58;;;22.70;99.90;;;;;;5081844;28;20589;-45
2022/06/24 07:22:59;;;;;;;3.55;3.25;;;22.80;99.90;;;;;;5085326;28;20199;-51
2022/06/24 07:25:26;;;;;;;5.22;2.70;;;22.80;99.90;;;;;;5083808;28;20199;-52
2022/06/24 07:27:53;;;;;;;4.35;3.40;;;22.90;99.90;;;;;;5077075;28;20870;-53
2022/06/24 07:30:20;;;;;;;4.13;3.05;;;23.00;99.90;;;;;;5070886;28;20270;-50
2022/06/24 07:32:48;;;;;;;3.30;3.00;;;23.00;99.90;;;;;;5073888;28;20295;-48
2022/06/24 07:35:15;;;;;;;2.85;2.65;;;23.10;99.90;;;;;;5064950;28;20553;-50
2022/06/24 07:37:42;;;;;;;5.22;2.63;;;23.10;99.90;;;;;;5078781;28;20203;-48
2022/06/24 07:40:12;;;;;;;2.80;2.60;;;23.10;99.90;;;;;;5080524;28;20276;-50
2022/06/24 07:42:39;;;;;;;2.67;2.47;;;23.20;99.90;;;;;;5077080;28;20589;-58
2022/06/24 07:45:07;;;;;;;7.32;4.32;;;23.30;99.90;;;;;;5079693;28;20542;-57
2022/06/24 07:47:34;;;;;;;3.67;3.40;;;23.30;99.90;;;;;;5077901;28;20201;-56
2022/06/24 07:50:03;;;;;;;2.97;2.80;;;23.40;99.90;;;;;;5085310;28;20215;-56
2022/06/24 07:52:30;;;;;;;4.10;3.05;;;23.50;99.90;;;;;;5079158;28;20601;-55
2022/06/24 07:57:40;;;;;;;3.47;2.60;;;23.60;99.90;;;;;;5080413;28;20201;-56
2022/06/24 08:00:08;;;;;;;2.70;2.50;;;23.70;99.90;;;;;;5079390;28;20189;-54
2022/06/24 08:02:39;;;;;;;2.80;2.60;;;23.80;99.90;;;;;;5081365;28;20201;-56
2022/06/24 08:05:06;;;;;;;2.75;2.63;;;23.80;99.70;;;;;;5075223;28;20197;-55
2022/06/24 08:07:33;;;;;;;2.35;2.20;;;23.90;99.50;;;;;;5072483;28;20192;-56
2022/06/24 08:10:01;;;;;;;2.80;2.42;;;23.90;99.30;;;;;;5080204;28;20212;-57
2022/06/24 08:12:28;;;;;;;2.83;2.60;;;24.00;99.10;;;;;;5072199;28;20719;-57
2022/06/24 08:14:56;;;;;;;2.45;2.35;;;24.00;98.70;;;;;;5076532;28;20292;-55
2022/06/24 08:17:24;;;;;;;2.28;2.15;;;24.10;98.60;;;;;;5069583;28;20698;-55
2022/06/24 08:19:51;;;;;;;2.35;2.15;;;24.20;98.50;;;;;;5060064;28;20237;-59
2022/06/24 08:22:18;;;;;;;2.20;2.10;;;24.30;98.30;;;;;;5066173;28;20289;-59
2022/06/24 08:24:46;;;;;;;2.28;2.17;;;24.40;97.80;;;;;;5056410;28;20201;-58
2022/06/24 08:27:13;;;;;;;2.70;2.50;;;24.40;97.50;;;;;;5065188;28;20754;-63
2022/06/24 08:29:40;;;;;;;3.33;3.10;;;24.50;97.20;;;;;;5062166;28;20284;-60
2022/06/24 08:32:09;;;;;;;2.75;2.40;;;24.60;96.90;;;;;;5059092;28;20224;-62
2022/06/24 08:34:36;;;;;;;2.83;2.20;;;24.60;95.90;;;;;;5065912;28;20674;-62
2022/06/24 08:37:04;;;;;;;2.60;2.33;;;24.70;95.50;;;;;;5058840;28;20554;-62
2022/06/24 08:39:31;;;;;;;3.25;3.05;;;24.70;95.30;;;;;;5051174;28;20218;-63
2022/06/24 08:41:59;;;;;;;2.80;2.60;;;24.80;95.10;;;;;;5050327;28;20284;-62
2022/06/24 08:44:27;;;;;;;2.63;2.42;;;24.90;95.10;;;;;;5062193;28;20208;-62
2022/06/24 08:46:54;;;;;;;2.20;2.10;;;25.00;94.80;;;;;;5050520;28;20658;-62
2022/06/24 08:49:23;;;;;;;1.88;1.77;;;25.10;94.60;;;;;;5051819;28;20233;-62
2022/06/24 08:51:51;;;;;;;2.38;2.28;;;25.10;93.90;;;;;;5051616;28;20571;-63
2022/06/24 08:54:18;;;;;;;3.58;2.45;;;25.20;93.40;;;;;;5053333;28;20224;-63
2022/06/24 08:56:46;;;;;;;2.08;1.98;;;25.30;93.00;;;;;;5049734;28;20194;-63
2022/06/24 08:59:14;;;;;;;2.20;2.03;;;25.30;92.70;;;;;;5053349;28;20659;-63
2022/06/24 09:01:41;;;;;;;3.33;2.08;;;25.30;92.50;;;;;;5063046;28;20206;-62
2022/06/24 09:04:09;;;;;;;1.75;1.65;;;25.40;92.40;;;;;;5063888;28;20201;-63
2022/06/24 09:06:42;;;;;;;2.05;1.95;;;25.50;92.60;;;;;;5053015;28;20205;-61
2022/06/24 09:09:10;;;;;;;1.92;1.83;;;25.60;92.20;;;;;;5051515;28;20194;-61
2022/06/24 09:11:39;;;;;;;2.08;1.98;;;25.60;92.10;;;;;;5056410;28;20700;-62
2022/06/24 09:14:08;;;;;;;2.13;2.03;;;25.60;92.00;;;;;;5058581;28;20504;-62
2022/06/24 09:16:38;;;;;;;3.08;2.83;;;25.70;91.70;;;;;;5062221;28;20193;-62
2022/06/24 09:19:06;;;;;;;4.70;2.92;;;25.80;91.20;;;;;;5066340;28;20600;-62
2022/06/24 09:21:39;;;;;;;2.38;2.28;;;25.80;90.80;;;;;;5085409;28;20287;-63
2022/06/24 09:24:09;;;;;;;2.03;1.92;;;25.90;90.80;;;;;;5076625;28;20595;-63
2022/06/24 09:26:38;;;;;;;1.90;1.80;;;25.90;90.70;;;;;;5075140;28;20196;-63
2022/06/24 09:29:06;;;;;;;3.05;2.30;;;26.00;90.70;;;;;;5091107;28;20673;-62
2022/06/24 09:31:34;;;;;;;2.50;2.30;;;26.10;90.10;;;;;;5075653;28;20213;-64
2022/06/24 09:34:12;;;;;;;2.17;1.88;;;26.10;89.50;;;;;;5080411;28;20211;-62
2022/06/24 09:36:41;;;;;;;1.92;1.83;;;26.10;89.10;;;;;;5086254;28;20266;-63
2022/06/24 09:39:12;;;;;;;5.70;2.08;;;26.10;88.30;;;;;;5085154;28;20665;-63
2022/06/24 09:41:46;;;;;;;3.05;2.15;;;26.10;88.20;;;;;;5084828;28;20233;-61
2022/06/24 09:44:13;;;;;;;2.13;1.90;;;26.20;88.00;;;;;;5072293;28;20185;-62
2022/06/24 09:46:41;;;;;;;2.10;1.90;;;26.20;88.40;;;;;;5066302;28;20224;-63
2022/06/24 09:49:11;;;;;;;2.40;2.17;;;26.20;88.30;;;;;;5071885;28;20224;-63
2022/06/24 09:51:39;;;;;;;1.83;1.73;;;26.20;88.70;;;;;;5075120;28;20292;-63
2022/06/24 09:54:06;;;;;;;2.58;2.22;;;26.30;89.10;;;;;;5088520;28;20281;-62
2022/06/24 09:56:36;;;;;;;1.92;1.83;;;26.40;89.50;;;;;;5073964;28;20197;-62
2022/06/24 10:01:48;;;;;;;1.77;1.70;;;26.50;89.90;;;;;;5075661;28;20311;-62
2022/06/24 10:04:17;;;;;;;1.95;1.85;;;26.50;89.40;;;;;;5083963;28;20204;-62
2022/06/24 10:06:46;;;;;;;1.95;1.83;;;26.60;88.70;;;;;;5070071;28;20197;-63
2022/06/24 10:09:13;;;;;;;2.65;1.92;;;26.60;88.30;;;;;;5077448;28;20382;-63
2022/06/24 10:11:45;;;;;;;1.83;1.73;;;26.60;87.40;;;;;;5080114;28;20212;-63
2022/06/24 10:14:13;;;;;;;2.13;2.03;;;26.70;87.40;;;;;;5083626;28;20209;-63
2022/06/24 10:16:42;;;;;;;2.05;1.95;;;26.70;86.80;;;;;;5083483;28;20704;-63
2022/06/24 10:19:12;;;;;;;2.42;2.22;;;26.80;86.80;;;;;;5081730;28;20228;-62
2022/06/24 10:21:40;;;;;;;3.03;1.73;;;26.80;85.50;;;;;;5079240;28;20200;-63
2022/06/24 10:24:15;;;;;;;2.92;2.22;;;27.00;84.50;;;;;;5082367;28;20276;-60
2022/06/24 10:26:47;;;;;;;2.20;2.00;;;26.90;83.80;;;;;;5081773;28;20234;-61
2022/06/24 10:29:22;;;;;;;3.58;2.13;;;26.90;82.80;;;;;;5088888;28;20241;-62
2022/06/24 10:32:08;;;;;;;1.90;1.80;;;26.90;82.10;;;;;;5077550;28;20203;-62
2022/06/24 10:34:38;;;;;;;2.05;1.85;;;26.90;82.00;;;;;;5075729;28;20216;-62
2022/06/24 10:37:09;;;;;;;2.08;1.90;;;27.00;82.30;;;;;;5080985;28;20275;-62
2022/06/24 10:39:46;;;;;;;2.00;1.90;;;27.00;82.20;;;;;;5073036;28;20225;-62
2022/06/24 10:42:20;;;;;;;2.00;1.90;;;27.10;81.80;;;;;;5084692;28;20556;-62
2022/06/24 10:45:09;;;;;;;1.77;1.67;;;27.10;80.00;;;;;;5080613;28;20673;-62
2022/06/24 10:47:44;;;;;;;1.92;1.80;;;27.10;79.50;;;;;;5071670;28;20234;-62
2022/06/24 10:50:18;;;;;;;1.80;1.70;;;27.10;79.50;;;;;;5060548;28;20684;-62
2022/06/24 10:53:01;;;;;;;1.73;1.63;;;27.10;79.60;;;;;;5086239;28;20188;-62
2022/06/24 10:55:43;;;;;;;2.08;1.63;;;27.10;79.90;;;;;;5084421;28;20223;-64
2022/06/24 10:58:16;;;;;;;1.83;1.73;;;27.10;79.30;;;;;;5081686;28;20280;-63
2022/06/24 11:01:06;;;;;;;1.85;1.67;;;27.20;79.00;;;;;;5078116;28;20189;-63
2022/06/24 11:03:37;;;;;;;1.70;1.60;;;27.30;79.30;;;;;;5074722;28;20196;-62
2022/06/24 11:06:04;;;;;;;1.73;1.70;;;27.30;78.70;;;;;;5081337;28;20200;-63
2022/06/24 11:08:36;;;;;;;2.00;1.90;;;27.30;78.40;;;;;;5056729;28;20655;-62
2022/06/24 11:11:05;;;;;;;1.52;1.42;;;27.40;78.10;;;;;;5072442;28;20667;-62
2022/06/24 11:13:34;;;;;;;1.70;1.60;;;27.40;78.10;;;;;;5088187;28;20316;-62
2022/06/24 11:16:01;;;;;;;1.98;1.88;;;27.50;78.30;;;;;;5082270;28;20200;-63
2022/06/24 11:18:30;;;;;;;1.60;1.55;;;27.50;78.30;;;;;;5076686;28;20214;-62
2022/06/24 11:21:01;;;;;;;1.65;1.55;;;27.60;77.90;;;;;;5075815;28;20196;-62
2022/06/24 11:23:29;;;;;;;2.35;1.60;;;27.60;77.40;;;;;;5088018;28;20555;-62
2022/06/24 11:26:01;;;;;;;23.45;1.52;;;27.70;77.50;;;;;;5083236;28;20210;-62
2022/06/24 11:28:30;;;;;;;3.13;1.98;;;27.70;77.80;;;;;;5073192;28;20201;-63
2022/06/24 11:31:16;;;;;;;1.67;1.60;;;27.70;77.70;;;;;;5053760;28;20197;-63
2022/06/24 11:33:44;;;;;;;1.40;1.40;;;27.70;77.70;;;;;;5078163;28;20234;-63
2022/06/24 11:36:12;;;;;;;1.60;1.50;;;27.80;77.20;;;;;;5084257;28;20684;-62
2022/06/24 11:38:50;;;;;;;1.63;1.52;;;27.80;76.90;;;;;;5079855;28;20202;-63
2022/06/24 11:41:27;;;;;;;1.52;1.50;;;27.70;76.60;;;;;;5084820;28;20212;-62
2022/06/24 11:43:55;;;;;;;1.63;1.52;;;27.70;76.80;;;;;;5090800;28;20188;-62
2022/06/24 11:46:24;;;;;;;1.83;1.73;;;27.70;76.80;;;;;;5058416;28;20704;-62
2022/06/24 11:49:04;;;;;;;1.70;1.60;;;27.80;76.90;;;;;;5080263;28;20201;-63
2022/06/24 11:51:31;;;;;;;1.98;1.70;;;27.80;77.00;;;;;;5080364;28;20267;-62
2022/06/24 11:53:59;;;;;;;1.73;1.67;;;27.80;76.70;;;;;;5086842;28;20240;-62
2022/06/24 11:56:29;;;;;;;2.35;1.67;;;27.90;75.40;;;;;;5079134;28;20197;-62
2022/06/24 11:58:56;;;;;;;1.77;1.67;;;27.90;74.50;;;;;;5079214;28;20627;-62
2022/06/24 12:01:25;;;;;;;3.45;1.30;;;27.90;73.80;;;;;;5080594;28;20193;-61
2022/06/24 12:03:54;;;;;;;1.83;1.63;;;27.90;73.40;;;;;;5080125;28;20197;-61
2022/06/24 12:06:22;;;;;;;1.40;1.40;;;27.90;73.40;;;;;;5086143;28;20219;-61
2022/06/24 12:08:51;;;;;;;1.80;1.70;;;27.90;73.10;;;;;;5082279;28;20201;-63
2022/06/24 12:11:21;;;;;;;1.70;1.60;;;27.90;72.80;;;;;;5078307;28;20203;-62
2022/06/24 12:13:57;;;;;;;1.23;1.10;;;27.90;72.40;;;;;;5082203;28;20213;-63
2022/06/24 12:16:26;;;;;;;6.07;1.70;;;27.90;72.30;;;;;;5078927;28;20197;-62
2022/06/24 12:18:54;;;;;;;1.80;1.67;;;27.90;71.80;;;;;;5076470;28;20236;-61
2022/06/24 12:21:27;;;;;;;1.50;1.50;;;28.00;71.70;;;;;;5085307;28;20283;-62
2022/06/24 12:23:54;;;;;;;2.83;1.80;;;28.00;71.30;;;;;;5090552;28;20196;-62
2022/06/24 12:26:23;;;;;;;1.55;1.45;;;28.00;69.40;;;;;;5083283;28;20204;-62
2022/06/24 12:29:00;;;;;;;1.90;1.80;;;28.10;69.00;;;;;;5079985;28;20779;-62
2022/06/24 12:31:29;;;;;;;1.60;1.50;;;28.10;67.80;;;;;;5087298;28;20300;-62
2022/06/24 12:33:57;;;;;;;1.33;1.20;;;28.10;67.60;;;;;;5080746;28;20271;-62
2022/06/24 12:36:33;;;;;;;1.92;1.50;;;28.10;67.20;;;;;;5085380;28;20200;-62
2022/06/24 12:39:04;;;;;;;1.67;1.58;;;28.10;64.50;;;;;;5079478;28;20499;-62
2022/06/24 12:41:43;;;;;;;1.88;1.70;;;28.10;64.30;;;;;;5077877;28;20204;-62
2022/06/24 12:44:10;;;;;;;1.48;1.45;;;28.10;64.20;;;;;;5083890;28;20185;-63
2022/06/24 12:52:30;;;;;;;1.50;1.40;;;28.10;65.00;;;;;;5086653;28;20215;-63
2022/06/24 12:54:57;;;;;;;2.00;1.90;;;28.20;65.10;;;;;;5082085;28;20233;-61
2022/06/24 12:57:24;;;;;;;2.20;2.00;;;28.20;64.20;;;;;;5078687;28;20207;-63
2022/06/24 12:59:51;;;;;;;3.78;1.70;;;28.20;63.40;;;;;;5085950;28;20262;-62
2022/06/24 13:02:19;;;;;;;1.88;1.77;;;28.20;63.00;;;;;;5068958;28;20204;-63
2022/06/24 13:04:47;;;;;;;2.55;1.65;;;28.20;63.30;;;;;;5082159;28;20227;-62
2022/06/24 13:07:14;;;;;;;3.03;1.90;;;28.20;62.10;;;;;;5080613;28;20201;-62
2022/06/24 13:09:41;;;;;;;1.45;1.45;;;28.20;62.00;;;;;;5072961;28;20220;-63
2022/06/24 13:12:09;;;;;;;1.85;1.75;;;28.20;62.10;;;;;;5076786;28;20209;-62
2022/06/24 13:14:36;;;;;;;1.95;1.85;;;28.20;62.30;;;;;;5072337;28;20300;-63